Time;durP1;ratioP1;P1;durP2;ratioP2;P2;SDS_P1;SDS_P2;PMS_P1;PMS_P2;Temp;Humidity;BMP_temperature;BMP_pressure;BME280_temperature;BME280_humidity;BME280_pressure;Samples;Min_cycle;Max_cycle;Signal;HPM_P1;HPM_P2
2023/12/18 00:00:10;;;;;;;33.92;14.73;;;8.40;99.90;;;;;;5031040;28;20964;-49
2023/12/18 00:02:36;;;;;;;36.65;15.38;;;8.30;99.90;;;;;;5030539;28;20431;-52
2023/12/18 00:05:02;;;;;;;30.40;15.80;;;8.40;99.90;;;;;;5028329;28;20057;-50
2023/12/18 00:07:27;;;;;;;36.40;14.25;;;8.20;99.90;;;;;;5030678;28;20389;-50
2023/12/18 00:09:53;;;;;;;40.03;15.60;;;8.20;99.90;;;;;;5025528;28;20057;-52
2023/12/18 00:12:19;;;;;;;30.40;14.90;;;8.30;99.90;;;;;;5031178;28;20037;-50
2023/12/18 00:14:44;;;;;;;37.00;14.55;;;8.30;99.90;;;;;;5031095;28;20051;-50
2023/12/18 00:17:10;;;;;;;30.40;14.02;;;8.40;99.90;;;;;;5031324;28;20143;-50
2023/12/18 00:19:36;;;;;;;30.10;14.02;;;8.40;99.90;;;;;;5029657;28;20045;-48
2023/12/18 00:22:01;;;;;;;30.45;14.10;;;8.50;99.90;;;;;;5031235;28;20049;-52
2023/12/18 00:24:27;;;;;;;32.13;14.18;;;8.50;99.90;;;;;;5030489;28;20033;-51
2023/12/18 00:26:52;;;;;;;30.80;15.30;;;8.50;99.90;;;;;;5030844;28;20040;-49
2023/12/18 00:29:18;;;;;;;28.83;14.30;;;8.40;99.90;;;;;;5029634;28;20085;-52
2023/12/18 00:31:44;;;;;;;33.55;16.02;;;8.30;99.90;;;;;;5030397;28;20101;-50
2023/12/18 00:34:09;;;;;;;36.55;14.57;;;8.30;99.90;;;;;;5030423;28;20041;-49
2023/12/18 00:36:35;;;;;;;33.95;15.25;;;8.30;99.90;;;;;;5030676;28;20075;-52
2023/12/18 00:39:01;;;;;;;33.70;15.32;;;8.30;99.90;;;;;;5030610;28;20069;-51
2023/12/18 00:41:26;;;;;;;34.78;14.07;;;8.60;99.90;;;;;;5030507;28;20096;-49
2023/12/18 00:43:52;;;;;;;37.35;15.18;;;8.50;99.90;;;;;;5030967;28;20042;-52
2023/12/18 00:46:18;;;;;;;34.55;14.65;;;8.60;99.90;;;;;;5030186;28;20033;-49
2023/12/18 00:48:43;;;;;;;34.63;13.95;;;8.30;99.90;;;;;;5030690;28;20520;-49
2023/12/18 00:51:12;;;;;;;32.22;13.95;;;8.40;99.90;;;;;;5031018;28;20112;-51
2023/12/18 00:53:37;;;;;;;26.00;14.25;;;8.60;99.90;;;;;;5032526;28;20384;-51
2023/12/18 00:56:03;;;;;;;40.30;15.27;;;8.60;99.90;;;;;;5031239;28;20037;-50
2023/12/18 00:58:29;;;;;;;35.53;14.77;;;8.30;99.90;;;;;;5034897;28;20045;-52
2023/12/18 01:00:55;;;;;;;35.17;14.52;;;8.60;99.90;;;;;;5034740;28;20038;-50
2023/12/18 01:03:22;;;;;;;32.53;14.27;;;8.40;99.90;;;;;;5016225;28;20176;-51
2023/12/18 01:05:47;;;;;;;34.85;15.07;;;8.40;99.90;;;;;;5034381;28;20107;-50
2023/12/18 01:08:13;;;;;;;33.83;14.23;;;8.30;99.90;;;;;;5034185;28;20492;-53
2023/12/18 01:10:38;;;;;;;32.78;14.88;;;8.50;99.90;;;;;;5034644;28;20469;-51
2023/12/18 01:13:04;;;;;;;31.38;13.65;;;8.50;99.90;;;;;;5034272;28;20412;-50
2023/12/18 01:15:30;;;;;;;39.10;16.70;;;8.60;99.90;;;;;;5034170;28;20034;-51
2023/12/18 01:17:56;;;;;;;35.42;15.50;;;8.60;99.90;;;;;;5033210;28;20373;-52
2023/12/18 01:20:21;;;;;;;37.55;14.57;;;8.60;99.90;;;;;;5033847;28;20056;-51
2023/12/18 01:22:47;;;;;;;33.97;14.45;;;8.40;99.90;;;;;;5033002;28;20033;-50
2023/12/18 01:25:12;;;;;;;40.10;15.40;;;8.60;99.90;;;;;;5034050;28;20052;-52
2023/12/18 01:27:41;;;;;;;37.90;15.95;;;8.60;99.90;;;;;;5033437;28;20080;-50
2023/12/18 01:30:08;;;;;;;31.58;15.18;;;8.50;99.90;;;;;;5034127;28;20128;-50
2023/12/18 01:32:33;;;;;;;41.65;16.73;;;8.60;99.90;;;;;;5033493;28;20608;-53
2023/12/18 01:34:59;;;;;;;37.45;16.98;;;8.60;99.90;;;;;;5034121;28;20120;-52
2023/12/18 01:37:25;;;;;;;37.40;15.93;;;8.40;99.90;;;;;;5033737;28;20120;-51
2023/12/18 01:39:50;;;;;;;33.75;15.98;;;8.60;99.90;;;;;;5030621;28;20044;-51
2023/12/18 01:42:16;;;;;;;38.25;16.45;;;7.70;99.90;;;;;;5032171;28;20053;-49
2023/12/18 01:44:42;;;;;;;41.00;15.82;;;8.40;99.90;;;;;;5033065;28;20080;-50
2023/12/18 01:47:08;;;;;;;37.13;16.17;;;8.50;99.90;;;;;;5033335;28;20115;-50
2023/12/18 01:49:34;;;;;;;34.15;16.30;;;8.60;99.90;;;;;;5031061;28;20085;-49
2023/12/18 01:52:00;;;;;;;42.58;16.60;;;8.50;99.90;;;;;;5033025;28;20044;-50
2023/12/18 01:54:27;;;;;;;41.13;15.82;;;8.40;99.90;;;;;;5032788;28;20042;-52
2023/12/18 01:56:54;;;;;;;37.72;15.00;;;8.60;99.90;;;;;;5046495;28;20037;-50
2023/12/18 01:59:22;;;;;;;37.58;16.70;;;8.60;99.90;;;;;;5033574;28;20373;-49
2023/12/18 02:01:48;;;;;;;38.30;15.15;;;8.70;99.90;;;;;;5032392;28;20081;-53
2023/12/18 02:04:15;;;;;;;37.28;15.35;;;8.50;99.90;;;;;;5032912;28;20048;-49
2023/12/18 02:06:42;;;;;;;31.65;15.48;;;8.70;99.90;;;;;;5033243;28;20045;-50
2023/12/18 02:09:09;;;;;;;36.10;15.32;;;8.50;99.90;;;;;;5033214;28;20075;-50
2023/12/18 02:11:35;;;;;;;36.38;16.02;;;8.50;99.90;;;;;;5032120;28;20033;-52
2023/12/18 02:14:01;;;;;;;35.38;17.80;;;8.70;99.90;;;;;;5031768;28;20049;-52
2023/12/18 02:16:27;;;;;;;36.63;16.67;;;8.60;99.90;;;;;;5033263;28;20037;-49
2023/12/18 02:18:54;;;;;;;33.40;17.23;;;8.70;99.90;;;;;;5032093;28;20045;-49
2023/12/18 02:21:21;;;;;;;37.25;16.15;;;8.50;99.90;;;;;;5031443;28;20091;-47
2023/12/18 02:23:48;;;;;;;32.75;15.48;;;8.50;99.90;;;;;;5030694;28;20121;-52
2023/12/18 02:26:15;;;;;;;41.70;15.68;;;8.60;99.90;;;;;;5030623;28;20037;-52
2023/12/18 02:28:43;;;;;;;30.27;15.57;;;8.70;99.90;;;;;;5030791;28;20517;-49
2023/12/18 02:31:12;;;;;;;34.15;16.08;;;8.70;99.90;;;;;;5033077;28;20032;-50
2023/12/18 02:33:37;;;;;;;36.95;16.48;;;8.50;99.90;;;;;;5030770;28;20440;-53
2023/12/18 02:36:03;;;;;;;35.00;15.77;;;8.60;99.90;;;;;;5032996;28;20037;-53
2023/12/18 02:38:29;;;;;;;32.13;15.32;;;8.70;99.90;;;;;;5032931;28;20472;-50
2023/12/18 02:40:55;;;;;;;27.30;15.48;;;8.50;99.90;;;;;;5033051;28;20091;-51
2023/12/18 02:43:20;;;;;;;36.35;16.40;;;8.50;99.90;;;;;;5032332;28;20054;-49
2023/12/18 02:45:46;;;;;;;32.55;15.35;;;8.70;99.90;;;;;;5032058;28;20052;-48
2023/12/18 02:48:11;;;;;;;33.30;15.80;;;8.80;99.90;;;;;;5030816;28;20145;-51
2023/12/18 02:50:38;;;;;;;33.83;15.68;;;8.60;99.90;;;;;;5031361;28;20033;-50
2023/12/18 02:53:04;;;;;;;34.85;15.40;;;8.80;99.90;;;;;;5032885;28;20041;-52
2023/12/18 02:55:30;;;;;;;37.53;15.32;;;8.80;99.90;;;;;;5032232;28;20097;-53
2023/12/18 02:57:55;;;;;;;32.30;15.52;;;8.60;99.90;;;;;;5032574;28;20045;-47
2023/12/18 03:00:21;;;;;;;31.17;16.48;;;8.80;99.90;;;;;;5032615;28;20045;-50
2023/12/18 03:02:47;;;;;;;30.00;15.02;;;8.50;99.90;;;;;;5031606;28;20106;-49
2023/12/18 03:05:14;;;;;;;31.75;15.60;;;8.60;99.90;;;;;;5031935;28;20108;-50
2023/12/18 03:07:40;;;;;;;32.95;15.18;;;8.60;99.90;;;;;;5030771;28;20055;-52
2023/12/18 03:10:06;;;;;;;36.00;15.73;;;8.70;99.90;;;;;;5028472;28;20041;-50
2023/12/18 03:12:32;;;;;;;31.55;14.88;;;8.80;99.90;;;;;;5031935;28;20069;-50
2023/12/18 03:14:57;;;;;;;34.05;15.40;;;8.80;99.90;;;;;;5030160;28;20477;-52
2023/12/18 03:17:23;;;;;;;33.00;15.07;;;8.50;99.90;;;;;;5031889;28;20049;-51
2023/12/18 03:19:48;;;;;;;29.23;15.07;;;8.70;99.90;;;;;;5032091;28;20045;-50
2023/12/18 03:22:14;;;;;;;36.17;15.60;;;8.70;99.90;;;;;;5030916;28;20100;-48
2023/12/18 03:24:42;;;;;;;37.60;15.98;;;8.50;99.90;;;;;;5031966;28;20046;-51
2023/12/18 03:27:08;;;;;;;30.55;14.55;;;8.50;99.90;;;;;;5030727;28;20459;-50
2023/12/18 03:29:34;;;;;;;36.63;15.95;;;8.80;99.90;;;;;;5031337;28;20045;-52
2023/12/18 03:32:00;;;;;;;29.15;15.20;;;8.50;99.90;;;;;;5031338;28;20049;-50
2023/12/18 03:34:26;;;;;;;35.58;15.30;;;8.70;99.90;;;;;;5031493;28;20042;-51
2023/12/18 03:36:52;;;;;;;35.70;15.85;;;8.60;99.90;;;;;;5031683;28;20373;-49
2023/12/18 03:39:17;;;;;;;30.73;14.05;;;8.80;99.90;;;;;;5031401;28;20512;-50
2023/12/18 03:41:43;;;;;;;33.13;14.50;;;8.80;99.90;;;;;;5031341;28;20037;-51
2023/12/18 03:44:09;;;;;;;34.35;14.73;;;8.60;99.90;;;;;;5030991;28;20045;-51
2023/12/18 03:46:35;;;;;;;32.17;14.75;;;8.60;99.90;;;;;;5031522;28;20049;-51
2023/12/18 03:49:00;;;;;;;32.63;14.52;;;8.80;99.90;;;;;;5031024;28;20041;-49
2023/12/18 03:51:26;;;;;;;30.65;14.00;;;8.80;99.90;;;;;;5031504;28;20215;-52
2023/12/18 03:53:51;;;;;;;28.90;14.80;;;8.50;99.90;;;;;;5026563;28;20096;-53
2023/12/18 03:56:17;;;;;;;30.25;14.27;;;8.60;99.90;;;;;;5031567;28;20390;-49
2023/12/18 03:58:43;;;;;;;31.52;14.75;;;8.70;99.90;;;;;;5030597;28;20485;-53
2023/12/18 04:01:08;;;;;;;36.22;17.45;;;8.90;99.90;;;;;;5031417;28;20029;-47
2023/12/18 04:03:34;;;;;;;33.50;13.48;;;8.60;99.90;;;;;;5030824;28;20242;-51
2023/12/18 04:06:00;;;;;;;29.67;13.45;;;8.60;99.90;;;;;;5029782;28;20084;-50
2023/12/18 04:08:26;;;;;;;30.35;13.57;;;8.60;99.90;;;;;;5029810;28;20064;-48
2023/12/18 04:10:51;;;;;;;31.48;14.23;;;8.60;99.90;;;;;;5030834;28;20530;-51
2023/12/18 04:13:17;;;;;;;28.05;13.30;;;8.60;99.90;;;;;;5031016;28;20043;-52
2023/12/18 04:15:43;;;;;;;32.28;14.40;;;9.00;99.90;;;;;;5031006;28;20072;-50
2023/12/18 04:18:08;;;;;;;34.25;14.50;;;8.80;99.90;;;;;;5031133;28;20041;-49
2023/12/18 04:20:34;;;;;;;34.03;13.63;;;8.60;99.90;;;;;;5031142;28;20047;-50
2023/12/18 04:23:00;;;;;;;30.17;14.13;;;8.60;99.90;;;;;;5031269;28;20041;-50
2023/12/18 04:25:25;;;;;;;27.58;13.57;;;8.60;99.90;;;;;;5030848;28;20133;-51
2023/12/18 04:27:52;;;;;;;29.58;13.13;;;8.60;99.90;;;;;;5029493;28;20044;-48
2023/12/18 04:30:18;;;;;;;29.92;13.88;;;8.80;99.90;;;;;;5029033;28;20037;-49
2023/12/18 04:32:44;;;;;;;32.42;14.18;;;8.80;99.90;;;;;;5030448;28;20041;-51
2023/12/18 04:35:09;;;;;;;26.60;13.45;;;8.60;99.90;;;;;;5030596;28;20034;-51
2023/12/18 04:37:35;;;;;;;31.70;13.43;;;8.80;99.90;;;;;;5031020;28;20125;-51
2023/12/18 04:40:03;;;;;;;25.73;13.20;;;8.70;99.90;;;;;;5026757;28;20336;-52
2023/12/18 04:42:29;;;;;;;27.65;13.63;;;8.70;99.90;;;;;;5029474;28;20088;-52
2023/12/18 04:44:55;;;;;;;29.42;12.93;;;8.60;99.90;;;;;;5030563;28;20152;-49
2023/12/18 04:47:20;;;;;;;29.60;14.00;;;8.80;99.90;;;;;;5030698;28;20072;-51
2023/12/18 04:49:47;;;;;;;28.92;13.52;;;8.60;99.90;;;;;;5030395;28;20815;-49
2023/12/18 04:52:12;;;;;;;30.85;14.00;;;8.90;99.90;;;;;;5030743;28;20037;-53
2023/12/18 04:54:38;;;;;;;32.85;14.30;;;8.60;99.90;;;;;;5030190;28;20033;-50
2023/12/18 04:57:04;;;;;;;28.95;13.43;;;8.80;99.90;;;;;;5030293;28;20050;-48
2023/12/18 04:59:30;;;;;;;37.42;14.00;;;8.90;99.90;;;;;;5030494;28;20037;-48
2023/12/18 05:01:56;;;;;;;36.78;13.75;;;8.60;99.90;;;;;;5030572;28;20393;-51
2023/12/18 05:04:21;;;;;;;30.27;13.88;;;8.70;99.90;;;;;;5028342;28;20461;-49
2023/12/18 05:06:47;;;;;;;28.27;12.80;;;8.80;99.90;;;;;;5030579;28;20076;-49
2023/12/18 05:09:12;;;;;;;30.42;13.23;;;8.70;99.90;;;;;;5030438;28;20040;-50
2023/12/18 05:11:39;;;;;;;29.67;14.00;;;8.80;99.90;;;;;;5031055;28;20797;-50
2023/12/18 05:14:04;;;;;;;39.75;14.07;;;8.60;99.90;;;;;;5030527;28;20053;-50
2023/12/18 05:16:30;;;;;;;32.22;13.73;;;8.60;99.90;;;;;;5030458;28;20041;-48
2023/12/18 05:18:56;;;;;;;28.83;13.85;;;8.60;99.90;;;;;;5030550;28;20945;-52
2023/12/18 05:21:22;;;;;;;28.27;13.48;;;8.90;99.90;;;;;;5030299;28;20041;-48
2023/12/18 05:23:49;;;;;;;28.45;13.57;;;8.90;99.90;;;;;;5027161;28;20130;-50
2023/12/18 05:26:15;;;;;;;32.50;13.48;;;8.70;99.90;;;;;;5026345;28;20057;-48
2023/12/18 05:28:41;;;;;;;28.42;18.95;;;8.90;99.90;;;;;;5026374;28;20034;-50
2023/12/18 05:31:10;;;;;;;26.80;13.43;;;8.90;99.90;;;;;;5028946;28;20072;-53
2023/12/18 05:33:36;;;;;;;32.75;13.05;;;8.70;99.90;;;;;;5026567;28;20112;-51
2023/12/18 05:36:02;;;;;;;31.77;13.52;;;8.70;99.90;;;;;;5028052;28;20514;-50
2023/12/18 05:38:27;;;;;;;32.03;13.50;;;8.80;99.90;;;;;;5032408;28;20034;-51
2023/12/18 05:40:53;;;;;;;33.42;14.93;;;8.70;99.90;;;;;;5032903;28;20039;-51
2023/12/18 05:43:19;;;;;;;32.17;15.27;;;8.60;99.90;;;;;;5033496;28;20061;-50
2023/12/18 05:45:44;;;;;;;35.88;13.55;;;8.80;99.90;;;;;;5033554;28;20049;-51
2023/12/18 05:48:10;;;;;;;28.45;13.45;;;8.70;99.90;;;;;;5032354;28;20051;-52
2023/12/18 05:50:36;;;;;;;29.10;19.27;;;8.70;99.90;;;;;;5033503;28;20052;-50
2023/12/18 05:53:01;;;;;;;28.17;14.07;;;8.80;99.90;;;;;;5033813;28;20030;-47
2023/12/18 05:55:27;;;;;;;35.05;13.27;;;8.70;99.90;;;;;;5033673;28;20164;-49
2023/12/18 05:57:53;;;;;;;29.55;13.60;;;8.70;99.90;;;;;;5033634;28;20492;-49
2023/12/18 06:00:19;;;;;;;26.27;13.23;;;8.80;99.90;;;;;;5032126;28;20425;-51
2023/12/18 06:02:45;;;;;;;31.52;13.70;;;8.70;99.90;;;;;;5033231;28;20553;-51
2023/12/18 06:05:11;;;;;;;27.65;13.48;;;8.70;99.90;;;;;;5032978;28;20045;-52
2023/12/18 06:07:36;;;;;;;25.98;14.18;;;8.90;99.90;;;;;;5031958;28;20499;-49
2023/12/18 06:10:03;;;;;;;28.23;14.77;;;8.90;99.90;;;;;;5028343;28;20124;-52
2023/12/18 06:12:28;;;;;;;32.58;13.95;;;8.70;99.90;;;;;;5029844;28;20057;-51
2023/12/18 06:14:54;;;;;;;34.33;14.07;;;8.70;99.90;;;;;;5030911;28;20037;-51
2023/12/18 06:17:20;;;;;;;34.70;14.63;;;8.90;99.90;;;;;;5033054;28;20115;-50
2023/12/18 06:19:47;;;;;;;29.48;14.75;;;8.70;99.90;;;;;;5033231;28;20041;-49
2023/12/18 06:22:13;;;;;;;29.77;13.63;;;8.90;99.90;;;;;;5032943;28;20073;-50
2023/12/18 06:24:39;;;;;;;24.92;12.52;;;8.90;99.90;;;;;;5032830;28;20484;-49
2023/12/18 06:27:05;;;;;;;28.40;13.30;;;9.00;99.90;;;;;;5032796;28;20045;-49
2023/12/18 06:29:31;;;;;;;29.42;15.20;;;8.70;99.90;;;;;;5032991;28;20044;-52
2023/12/18 06:31:57;;;;;;;35.22;14.70;;;8.80;99.90;;;;;;5032888;28;20137;-50
2023/12/18 06:34:23;;;;;;;31.13;13.57;;;8.90;99.90;;;;;;5032895;28;20045;-51
2023/12/18 06:36:49;;;;;;;32.95;13.68;;;8.80;99.90;;;;;;5033074;28;20477;-53
2023/12/18 06:39:14;;;;;;;33.78;14.88;;;9.00;99.90;;;;;;5032777;28;20075;-48
2023/12/18 06:41:40;;;;;;;26.58;14.10;;;8.80;99.90;;;;;;5032701;28;20045;-48
2023/12/18 06:44:06;;;;;;;28.48;14.35;;;9.00;99.90;;;;;;5032249;28;20049;-51
2023/12/18 06:46:33;;;;;;;31.98;14.85;;;8.80;99.90;;;;;;5032820;28;20504;-51
2023/12/18 06:48:59;;;;;;;26.83;14.27;;;9.00;99.90;;;;;;5032131;28;20432;-50
2023/12/18 06:51:25;;;;;;;31.95;13.70;;;9.00;99.90;;;;;;5032222;28;20037;-50
2023/12/18 06:53:51;;;;;;;35.15;14.50;;;9.00;99.90;;;;;;5029028;28;20038;-51
2023/12/18 06:56:16;;;;;;;30.13;13.40;;;8.90;99.90;;;;;;5028965;28;20129;-52
2023/12/18 06:58:42;;;;;;;35.83;14.07;;;9.00;99.90;;;;;;5031202;28;20044;-48
2023/12/18 07:01:08;;;;;;;29.73;14.43;;;8.80;99.90;;;;;;5032599;28;20030;-51
2023/12/18 07:03:33;;;;;;;29.38;12.90;;;8.80;99.90;;;;;;5031960;28;20108;-49
2023/12/18 07:05:59;;;;;;;32.50;15.38;;;8.80;99.90;;;;;;5032320;28;20045;-49
2023/12/18 07:08:25;;;;;;;26.45;13.90;;;8.80;99.90;;;;;;5032132;28;20033;-50
2023/12/18 07:10:51;;;;;;;30.42;14.30;;;8.70;99.90;;;;;;5031795;28;20033;-50
2023/12/18 07:13:17;;;;;;;32.67;15.68;;;8.80;99.90;;;;;;5032226;28;20461;-50
2023/12/18 07:15:43;;;;;;;38.90;16.75;;;9.00;99.90;;;;;;5026782;28;20370;-51
2023/12/18 07:18:09;;;;;;;34.22;15.98;;;8.90;99.90;;;;;;5030959;28;20056;-51
2023/12/18 07:20:34;;;;;;;32.30;17.63;;;8.90;99.90;;;;;;5031504;28;20049;-52
2023/12/18 07:23:00;;;;;;;31.77;16.42;;;8.70;99.90;;;;;;5031941;28;20413;-50
2023/12/18 07:25:26;;;;;;;33.88;16.92;;;8.80;99.90;;;;;;5031784;28;20045;-51
2023/12/18 07:27:51;;;;;;;44.78;18.40;;;8.80;99.90;;;;;;5030379;28;20488;-50
2023/12/18 07:30:17;;;;;;;36.97;17.02;;;8.80;99.90;;;;;;5031895;28;20159;-51
2023/12/18 07:32:43;;;;;;;37.03;18.10;;;8.70;99.90;;;;;;5031055;28;20437;-52
2023/12/18 07:35:09;;;;;;;37.45;18.77;;;8.60;99.90;;;;;;5012017;28;20038;-50
2023/12/18 07:37:34;;;;;;;40.40;18.52;;;8.70;99.90;;;;;;5029836;28;20041;-50
2023/12/18 07:40:01;;;;;;;35.40;17.38;;;8.70;99.90;;;;;;5029176;28;20068;-50
2023/12/18 07:42:27;;;;;;;39.00;19.30;;;8.70;99.90;;;;;;5030126;28;20052;-50
2023/12/18 07:44:53;;;;;;;40.65;19.48;;;8.60;99.90;;;;;;5031358;28;20052;-50
2023/12/18 07:47:20;;;;;;;41.75;19.77;;;8.50;99.90;;;;;;5030847;28;20045;-49
2023/12/18 07:49:46;;;;;;;40.67;18.98;;;8.50;99.90;;;;;;5031606;28;20103;-52
2023/12/18 07:52:11;;;;;;;39.25;19.58;;;8.60;99.90;;;;;;5031485;28;20045;-50
2023/12/18 07:54:37;;;;;;;34.85;18.23;;;8.70;99.90;;;;;;5031554;28;20048;-50
2023/12/18 07:57:03;;;;;;;38.58;19.00;;;8.50;99.90;;;;;;5031342;28;20492;-49
2023/12/18 07:59:29;;;;;;;41.67;18.75;;;8.60;99.90;;;;;;5029541;28;20045;-50
2023/12/18 08:01:54;;;;;;;40.88;19.02;;;8.70;99.90;;;;;;5025335;28;20064;-50
2023/12/18 08:04:20;;;;;;;36.97;19.10;;;8.60;99.90;;;;;;5029340;28;20041;-50
2023/12/18 08:06:47;;;;;;;34.05;17.30;;;8.70;99.90;;;;;;5031124;28;20061;-49
2023/12/18 08:09:14;;;;;;;39.03;19.73;;;8.50;99.90;;;;;;5029479;28;20041;-51
2023/12/18 08:11:39;;;;;;;44.10;19.23;;;8.60;99.90;;;;;;5031201;28;20060;-52
2023/12/18 08:14:05;;;;;;;44.13;19.35;;;8.60;99.90;;;;;;5018933;28;20815;-50
2023/12/18 08:16:31;;;;;;;43.78;19.33;;;8.60;99.90;;;;;;5023688;28;20378;-49
2023/12/18 08:18:58;;;;;;;44.55;19.33;;;8.70;99.90;;;;;;5022032;28;20033;-50
2023/12/18 08:21:27;;;;;;;34.80;18.33;;;8.80;99.90;;;;;;5020645;28;20065;-48
2023/12/18 08:23:53;;;;;;;41.58;18.65;;;8.80;99.90;;;;;;5020977;28;20026;-49
2023/12/18 08:26:19;;;;;;;42.00;18.48;;;8.80;99.90;;;;;;5022188;28;20444;-49
2023/12/18 08:28:45;;;;;;;38.25;17.60;;;8.70;99.90;;;;;;5022747;28;20388;-49
2023/12/18 08:31:12;;;;;;;46.00;18.60;;;8.90;99.90;;;;;;5022171;28;20029;-49
2023/12/18 08:33:41;;;;;;;43.80;19.60;;;8.90;99.90;;;;;;5022734;28;20060;-51
2023/12/18 08:36:07;;;;;;;43.38;18.60;;;8.70;99.90;;;;;;5022354;28;20089;-50
2023/12/18 08:38:33;;;;;;;38.10;18.58;;;9.00;99.90;;;;;;5005416;28;20819;-48
2023/12/18 08:40:59;;;;;;;37.67;19.38;;;9.00;99.90;;;;;;5022106;28;20120;-48
2023/12/18 08:43:24;;;;;;;43.30;19.13;;;9.00;99.90;;;;;;5021001;28;20053;-50
2023/12/18 08:45:50;;;;;;;39.63;18.55;;;8.90;99.90;;;;;;5014090;28;20085;-51
2023/12/18 08:48:16;;;;;;;39.35;18.45;;;9.00;99.90;;;;;;5013989;28;20120;-49
2023/12/18 08:50:43;;;;;;;40.85;20.48;;;8.80;99.90;;;;;;5019311;28;20377;-49
2023/12/18 08:53:08;;;;;;;40.42;19.40;;;9.10;99.90;;;;;;5019919;28;20044;-50
2023/12/18 08:55:38;;;;;;;38.58;19.92;;;8.90;99.90;;;;;;5019253;28;20401;-47
2023/12/18 08:58:08;;;;;;;39.55;19.23;;;8.80;99.90;;;;;;5019507;28;20033;-49
2023/12/18 09:00:33;;;;;;;37.33;20.45;;;9.10;99.90;;;;;;5020556;28;20038;-51
2023/12/18 09:02:59;;;;;;;41.45;19.30;;;8.90;99.90;;;;;;5019106;28;20543;-49
2023/12/18 09:05:25;;;;;;;42.80;20.63;;;9.20;99.90;;;;;;5020370;28;20045;-48
2023/12/18 09:07:50;;;;;;;40.67;18.65;;;9.10;99.90;;;;;;5021172;28;20366;-50
2023/12/18 09:10:22;;;;;;;39.75;19.00;;;9.00;99.90;;;;;;5022577;28;20042;-48
2023/12/18 09:12:48;;;;;;;37.55;20.20;;;9.10;99.90;;;;;;5028167;28;20116;-48
2023/12/18 09:15:14;;;;;;;41.35;21.02;;;9.20;99.90;;;;;;5032166;28;20060;-51
2023/12/18 09:17:40;;;;;;;37.60;20.40;;;9.10;99.90;;;;;;5031541;28;20049;-49
2023/12/18 09:20:07;;;;;;;40.33;19.65;;;9.10;99.90;;;;;;5031043;28;20046;-49
2023/12/18 09:22:32;;;;;;;41.95;20.85;;;9.30;99.90;;;;;;5033518;28;20076;-47
2023/12/18 09:24:58;;;;;;;40.90;20.23;;;9.10;99.90;;;;;;5033739;28;20041;-48
2023/12/18 09:27:24;;;;;;;42.85;20.85;;;9.30;99.90;;;;;;5033394;28;20033;-49
2023/12/18 09:29:49;;;;;;;40.28;19.55;;;9.20;99.90;;;;;;5033535;28;20077;-50
2023/12/18 09:32:15;;;;;;;44.40;21.20;;;9.20;99.90;;;;;;5032926;28;20095;-51
2023/12/18 09:34:41;;;;;;;36.10;19.40;;;9.20;99.90;;;;;;5033394;28;20045;-49
2023/12/18 09:37:06;;;;;;;48.35;19.20;;;9.30;99.90;;;;;;5033839;28;20120;-50
2023/12/18 09:39:32;;;;;;;35.88;18.45;;;9.30;99.90;;;;;;5032966;28;20171;-51
2023/12/18 09:42:01;;;;;;;44.47;21.15;;;9.20;99.90;;;;;;5033700;28;20045;-52
2023/12/18 09:44:30;;;;;;;42.78;19.67;;;9.30;99.90;;;;;;5033116;28;20080;-50
2023/12/18 09:46:58;;;;;;;36.47;18.63;;;9.40;99.90;;;;;;5032993;28;20042;-50
2023/12/18 09:49:24;;;;;;;45.20;21.42;;;9.40;99.90;;;;;;5033420;28;20037;-50
2023/12/18 09:51:53;;;;;;;38.08;20.45;;;9.20;99.90;;;;;;5032517;28;20397;-48
2023/12/18 09:54:20;;;;;;;36.42;20.33;;;9.20;99.90;;;;;;5031794;28;20045;-50
2023/12/18 09:56:48;;;;;;;41.92;20.45;;;9.20;99.90;;;;;;5033360;28;20038;-50
2023/12/18 09:59:16;;;;;;;42.50;20.52;;;9.20;99.90;;;;;;5032989;28;20095;-50
2023/12/18 10:01:43;;;;;;;41.67;21.05;;;9.20;99.90;;;;;;5032524;28;20051;-53
2023/12/18 10:04:09;;;;;;;42.75;20.65;;;9.40;99.90;;;;;;5032723;28;20534;-48
2023/12/18 10:06:34;;;;;;;39.50;20.52;;;9.20;99.90;;;;;;5032766;28;20128;-50
2023/12/18 10:09:09;;;;;;;41.20;21.25;;;9.20;99.90;;;;;;5031793;28;20116;-52
2023/12/18 10:11:35;;;;;;;36.97;19.52;;;9.50;99.90;;;;;;5032794;28;20033;-49
2023/12/18 10:14:00;;;;;;;45.10;20.67;;;9.30;99.90;;;;;;5032709;28;20045;-51
2023/12/18 10:16:26;;;;;;;45.25;21.23;;;9.40;99.90;;;;;;5032147;28;20036;-49
2023/12/18 10:18:53;;;;;;;42.70;21.40;;;9.40;99.90;;;;;;5032181;28;20040;-50
2023/12/18 10:21:25;;;;;;;42.75;22.73;;;9.30;99.90;;;;;;5031086;28;20087;-50
2023/12/18 10:23:53;;;;;;;39.67;21.60;;;9.30;99.90;;;;;;5032173;28;20026;-52
2023/12/18 10:26:20;;;;;;;39.70;19.92;;;9.40;99.90;;;;;;5031519;28;20389;-51
2023/12/18 10:28:45;;;;;;;44.13;21.42;;;9.30;99.90;;;;;;5031809;28;20068;-50
2023/12/18 10:31:11;;;;;;;42.05;20.02;;;9.60;99.90;;;;;;5032516;28;20099;-52
2023/12/18 10:33:38;;;;;;;38.80;20.65;;;9.40;99.90;;;;;;5031985;28;20488;-50
2023/12/18 10:36:08;;;;;;;43.65;20.73;;;9.50;99.90;;;;;;5032107;28;20048;-49
2023/12/18 10:38:36;;;;;;;38.05;19.60;;;9.40;99.90;;;;;;5032335;28;20544;-50
2023/12/18 10:41:04;;;;;;;46.05;19.92;;;9.60;99.90;;;;;;5032292;28;20477;-49
2023/12/18 10:43:33;;;;;;;39.55;19.70;;;9.60;99.90;;;;;;5032097;28;20436;-50
2023/12/18 10:46:02;;;;;;;41.28;18.50;;;9.40;99.90;;;;;;5032277;28;20052;-49
2023/12/18 10:48:28;;;;;;;41.47;19.63;;;9.60;99.90;;;;;;5031326;28;20037;-50
2023/12/18 10:50:56;;;;;;;39.15;19.20;;;9.40;99.90;;;;;;5032281;28;20109;-50
2023/12/18 10:53:23;;;;;;;38.90;20.98;;;9.60;99.90;;;;;;5031143;28;20076;-49
2023/12/18 10:55:50;;;;;;;38.05;20.95;;;9.70;99.90;;;;;;5031186;28;20084;-51
2023/12/18 10:58:19;;;;;;;44.97;21.00;;;9.70;99.90;;;;;;5032396;28;20045;-49
2023/12/18 11:00:45;;;;;;;39.65;20.48;;;9.70;99.90;;;;;;5032320;28;20386;-49
2023/12/18 11:03:13;;;;;;;40.03;20.92;;;9.70;99.90;;;;;;5032135;28;20041;-50
2023/12/18 11:05:40;;;;;;;43.30;21.50;;;9.70;99.90;;;;;;5030488;28;20057;-50
2023/12/18 11:08:06;;;;;;;38.72;21.30;;;9.60;99.90;;;;;;5031017;28;20041;-50
2023/12/18 11:10:32;;;;;;;36.75;20.58;;;9.70;99.90;;;;;;5031597;28;20484;-49
2023/12/18 11:13:30;;;;;;;44.30;22.08;;;9.70;99.90;;;;;;5031280;28;20033;-50
2023/12/18 11:16:20;;;;;;;41.45;20.98;;;9.80;99.90;;;;;;5031402;28;20473;-48
2023/12/18 11:19:01;;;;;;;38.53;18.60;;;9.80;99.90;;;;;;5032194;28;20041;-52
2023/12/18 11:21:27;;;;;;;38.22;21.02;;;9.60;99.90;;;;;;5031747;28;20051;-49
2023/12/18 11:23:52;;;;;;;42.15;21.50;;;9.60;99.90;;;;;;5031698;28;20049;-51
2023/12/18 11:26:18;;;;;;;42.15;19.95;;;9.90;99.90;;;;;;5025835;28;20042;-50
2023/12/18 11:28:48;;;;;;;36.53;20.52;;;9.90;99.90;;;;;;5025145;28;20041;-52
2023/12/18 11:31:20;;;;;;;37.28;19.90;;;10.00;99.90;;;;;;5029905;28;20033;-50
2023/12/18 11:34:07;;;;;;;36.88;19.67;;;9.80;99.90;;;;;;5028988;28;20084;-52
2023/12/18 11:36:33;;;;;;;37.47;19.75;;;9.70;99.90;;;;;;5026080;28;20041;-49
2023/12/18 11:38:58;;;;;;;40.53;20.83;;;9.90;99.90;;;;;;5030313;28;20103;-51
2023/12/18 11:41:47;;;;;;;38.58;20.23;;;9.70;99.90;;;;;;5028579;28;20042;-49
2023/12/18 11:44:14;;;;;;;41.25;20.17;;;9.70;99.90;;;;;;5024197;28;20075;-51
2023/12/18 11:46:41;;;;;;;42.92;21.38;;;9.60;99.90;;;;;;5027049;28;20041;-50
2023/12/18 11:49:08;;;;;;;37.05;20.13;;;9.70;99.90;;;;;;5022654;28;20041;-51
2023/12/18 11:51:35;;;;;;;37.13;18.65;;;9.60;99.90;;;;;;5025166;28;20069;-48
2023/12/18 11:54:01;;;;;;;41.70;19.92;;;9.80;99.90;;;;;;5024716;28;20033;-52
2023/12/18 11:56:28;;;;;;;34.63;20.83;;;9.70;99.90;;;;;;5024372;28;20048;-51
2023/12/18 11:58:57;;;;;;;35.97;27.48;;;9.70;99.90;;;;;;5023701;28;20040;-47
2023/12/18 12:01:25;;;;;;;39.17;19.85;;;9.70;99.90;;;;;;5024091;28;20040;-48
2023/12/18 12:03:53;;;;;;;36.20;19.80;;;9.70;99.90;;;;;;5021339;28;20033;-51
2023/12/18 12:06:19;;;;;;;40.33;18.88;;;9.70;99.90;;;;;;5019803;28;20053;-53
2023/12/18 12:08:49;;;;;;;38.63;18.77;;;9.60;99.90;;;;;;5023364;28;20124;-53
2023/12/18 12:11:15;;;;;;;36.03;20.02;;;9.60;99.90;;;;;;5022627;28;20139;-52
2023/12/18 12:13:41;;;;;;;44.70;19.80;;;9.70;99.90;;;;;;5022999;28;20991;-50
2023/12/18 12:16:07;;;;;;;36.58;20.15;;;9.70;99.90;;;;;;5018521;28;20352;-54
2023/12/18 12:18:48;;;;;;;41.80;19.05;;;9.50;99.90;;;;;;5025225;28;20097;-50
2023/12/18 12:21:14;;;;;;;32.78;19.30;;;9.70;99.90;;;;;;5022239;28;20085;-49
2023/12/18 12:23:40;;;;;;;39.80;19.38;;;9.70;99.90;;;;;;5018861;28;20167;-49
2023/12/18 12:26:09;;;;;;;37.13;20.15;;;9.70;99.90;;;;;;5024972;28;20117;-51
2023/12/18 12:28:35;;;;;;;34.40;19.80;;;9.50;99.90;;;;;;5021522;28;20041;-51
2023/12/18 12:31:02;;;;;;;36.13;18.60;;;9.50;99.90;;;;;;5023384;28;20038;-49